createdAt,value
2018-08-25T00:01:58.813Z,17.93
2018-08-25T00:04:27.118Z,17.93
2018-08-25T00:06:55.314Z,18.09
2018-08-25T00:09:23.500Z,17.91
2018-08-25T00:11:51.823Z,17.81
2018-08-25T00:14:20.043Z,17.70
2018-08-25T00:16:48.335Z,17.50
2018-08-25T00:19:16.623Z,17.64
2018-08-25T00:21:44.814Z,17.66
2018-08-25T00:24:13.068Z,17.60
2018-08-25T00:26:41.304Z,17.70
2018-08-25T00:29:09.570Z,17.66
2018-08-25T00:31:37.735Z,17.72
2018-08-25T00:34:05.934Z,17.67
2018-08-25T00:36:34.182Z,17.46
2018-08-25T00:39:02.516Z,17.60
2018-08-25T00:41:30.628Z,17.64
2018-08-25T00:43:58.852Z,17.69
2018-08-25T00:46:27.855Z,17.79
2018-08-25T00:48:55.981Z,17.63
2018-08-25T00:51:24.739Z,17.63
2018-08-25T00:53:53.045Z,17.69
2018-08-25T00:56:21.241Z,17.60
2018-08-25T00:58:49.535Z,17.38
2018-08-25T01:01:17.802Z,17.47
2018-08-25T01:03:56.917Z,17.62
2018-08-25T01:06:25.336Z,17.62
2018-08-25T01:08:53.749Z,17.72
2018-08-25T01:11:21.856Z,17.67
2018-08-25T01:13:50.870Z,17.66
2018-08-25T01:16:19.115Z,17.67
2018-08-25T01:18:47.295Z,17.71
2018-08-25T01:21:15.455Z,17.67
2018-08-25T01:23:43.655Z,17.68
2018-08-25T01:26:11.829Z,17.62
2018-08-25T01:28:40.112Z,17.67
2018-08-25T01:31:08.387Z,17.63
2018-08-25T01:33:36.557Z,17.44
2018-08-25T01:36:04.735Z,17.35
2018-08-25T01:38:32.871Z,17.32
2018-08-25T01:41:01.045Z,17.47
2018-08-25T01:43:29.161Z,17.45
2018-08-25T01:45:57.479Z,17.44
2018-08-25T01:48:25.761Z,17.37
2018-08-25T01:50:53.939Z,17.52
2018-08-25T01:53:22.142Z,17.44
2018-08-25T01:55:50.421Z,17.35
2018-08-25T01:58:18.689Z,17.36
2018-08-25T02:00:47.868Z,17.31
2018-08-25T02:03:16.301Z,17.24
2018-08-25T02:05:44.461Z,17.28
2018-08-25T02:08:12.697Z,17.18
2018-08-25T02:10:40.809Z,17.08
2018-08-25T02:13:09.114Z,17.22
2018-08-25T02:15:37.517Z,17.28
2018-08-25T02:18:05.812Z,17.28
2018-08-25T02:20:34.024Z,17.35
2018-08-25T02:23:02.151Z,17.39
2018-08-25T02:25:30.439Z,17.33
2018-08-25T02:27:58.609Z,17.25
2018-08-25T02:30:26.754Z,17.28
2018-08-25T02:32:54.972Z,17.20
2018-08-25T02:35:23.168Z,17.28
2018-08-25T02:37:51.368Z,17.29
2018-08-25T02:40:19.585Z,17.33
2018-08-25T02:42:47.872Z,17.39
2018-08-25T02:45:16.034Z,17.36
2018-08-25T02:47:44.360Z,17.29
2018-08-25T02:50:12.628Z,17.13
2018-08-25T02:52:40.873Z,17.15
2018-08-25T02:55:09.150Z,17.22
2018-08-25T02:57:37.380Z,17.06
2018-08-25T03:00:05.653Z,16.92
2018-08-25T03:02:33.913Z,16.84
2018-08-25T03:05:02.155Z,16.85
2018-08-25T03:07:30.446Z,16.91
2018-08-25T03:09:58.653Z,16.84
2018-08-25T03:12:26.849Z,16.97
2018-08-25T03:14:55.069Z,16.82
2018-08-25T03:17:23.407Z,16.87
2018-08-25T03:19:51.703Z,16.74
2018-08-25T03:22:19.913Z,16.78
2018-08-25T03:24:48.114Z,16.92
2018-08-25T03:27:16.384Z,16.98
2018-08-25T03:29:44.654Z,16.90
2018-08-25T03:32:12.873Z,16.91
2018-08-25T03:34:41.171Z,16.78
2018-08-25T03:37:09.461Z,16.84
2018-08-25T03:39:37.639Z,16.93
2018-08-25T03:42:05.829Z,16.86
2018-08-25T03:44:33.923Z,16.83
2018-08-25T03:47:02.302Z,16.69
2018-08-25T03:49:30.486Z,16.62
2018-08-25T03:51:58.729Z,16.54
2018-08-25T03:54:26.936Z,16.67
2018-08-25T03:56:55.091Z,16.94
2018-08-25T03:59:23.331Z,16.98
2018-08-25T04:01:52.048Z,17.00
2018-08-25T04:04:20.188Z,16.76
2018-08-25T04:06:48.351Z,16.71
2018-08-25T04:09:16.568Z,16.64
2018-08-25T04:11:44.753Z,16.78
2018-08-25T04:14:13.030Z,16.85
2018-08-25T04:16:41.165Z,16.90
2018-08-25T04:19:13.136Z,16.61
2018-08-25T04:21:41.286Z,16.55
2018-08-25T04:24:09.476Z,16.37
2018-08-25T04:26:37.651Z,16.50
2018-08-25T04:29:05.925Z,16.48
2018-08-25T04:31:34.096Z,16.47
2018-08-25T04:34:02.986Z,16.38
2018-08-25T04:36:31.115Z,16.60
2018-08-25T04:38:59.363Z,16.51
2018-08-25T04:41:27.573Z,16.41
2018-08-25T04:43:55.998Z,16.52
2018-08-25T04:46:24.181Z,16.51
2018-08-25T04:48:52.430Z,16.49
2018-08-25T04:51:20.666Z,16.56
2018-08-25T04:53:48.879Z,16.57
2018-08-25T04:56:17.043Z,16.64
2018-08-25T04:58:45.333Z,16.68
2018-08-25T05:01:13.473Z,16.68
2018-08-25T05:03:41.889Z,16.75
2018-08-25T05:06:10.147Z,16.77
2018-08-25T05:08:39.067Z,16.73
2018-08-25T05:11:07.193Z,16.64
2018-08-25T05:13:35.411Z,16.70
2018-08-25T05:16:03.625Z,16.68
2018-08-25T05:18:31.741Z,16.68
2018-08-25T05:20:59.976Z,16.66
2018-08-25T05:23:28.081Z,16.83
2018-08-25T05:26:02.660Z,16.81
2018-08-25T05:28:30.845Z,16.95
2018-08-25T05:30:58.968Z,16.89
2018-08-25T05:33:27.051Z,16.91
2018-08-25T05:35:56.565Z,16.79
2018-08-25T05:38:24.733Z,16.94
2018-08-25T05:40:52.937Z,16.90
2018-08-25T05:43:21.052Z,16.86
2018-08-25T05:45:49.158Z,16.93
2018-08-25T05:48:17.420Z,16.95
2018-08-25T05:50:45.735Z,17.21
2018-08-25T05:53:13.933Z,17.34
2018-08-25T05:55:42.401Z,17.25
2018-08-25T05:58:10.668Z,17.31
2018-08-25T06:00:38.816Z,17.30
2018-08-25T06:03:07.030Z,17.32
2018-08-25T06:05:35.349Z,17.45
2018-08-25T06:08:04.451Z,18.20
2018-08-25T06:10:33.398Z,18.80
2018-08-25T06:13:01.667Z,18.97
2018-08-25T06:15:36.634Z,18.97
2018-08-25T06:18:04.897Z,18.79
2018-08-25T06:20:33.046Z,18.88
2018-08-25T06:23:01.278Z,18.89
2018-08-25T06:25:29.997Z,19.19
2018-08-25T06:27:58.298Z,19.16
2018-08-25T06:30:26.398Z,19.56
2018-08-25T06:32:54.728Z,19.76
2018-08-25T06:35:23.096Z,19.92
2018-08-25T06:37:51.251Z,20.13
2018-08-25T06:40:19.432Z,20.02
2018-08-25T06:42:47.616Z,20.10
2018-08-25T06:45:16.581Z,20.22
2018-08-25T06:47:44.871Z,20.02
2018-08-25T06:50:13.072Z,20.06
2018-08-25T06:52:41.332Z,20.15
2018-08-25T06:55:09.591Z,20.22
2018-08-25T06:57:38.402Z,20.36
2018-08-25T07:00:07.449Z,20.48
2018-08-25T07:02:35.774Z,20.35
2018-08-25T07:05:05.229Z,20.05
2018-08-25T07:07:35.283Z,20.17
2018-08-25T07:10:04.393Z,20.34
2018-08-25T07:12:32.696Z,20.74
2018-08-25T07:15:02.637Z,20.95
2018-08-25T07:17:30.896Z,20.85
2018-08-25T07:19:59.327Z,21.07
2018-08-25T07:22:27.587Z,21.31
2018-08-25T07:24:55.818Z,21.69
2018-08-25T07:27:24.907Z,22.15
2018-08-25T07:29:53.157Z,23.42
2018-08-25T07:32:21.441Z,24.73
2018-08-25T07:34:49.705Z,27.02
2018-08-25T07:37:17.917Z,29.24
2018-08-25T07:39:46.267Z,31.05
2018-08-25T07:42:15.043Z,32.53
2018-08-25T07:44:43.241Z,32.69
2018-08-25T07:47:11.556Z,33.47
2018-08-25T07:49:39.736Z,33.94
2018-08-25T07:52:07.967Z,34.24
2018-08-25T07:54:36.186Z,34.71
2018-08-25T07:57:04.498Z,34.64
2018-08-25T07:59:32.760Z,34.99
2018-08-25T08:02:01.637Z,35.05
2018-08-25T08:04:30.350Z,35.63
2018-08-25T08:06:58.644Z,36.42
2018-08-25T08:09:27.024Z,36.46
2018-08-25T08:11:55.689Z,37.27
2018-08-25T08:14:24.343Z,38.24
2018-08-25T08:16:52.554Z,39.25
2018-08-25T08:19:20.777Z,39.08
2018-08-25T08:21:49.066Z,38.97
2018-08-25T08:24:18.144Z,39.14
2018-08-25T08:26:46.326Z,39.27
2018-08-25T08:29:14.558Z,38.00
2018-08-25T08:31:42.860Z,37.25
2018-08-25T08:34:11.119Z,38.11
2018-08-25T08:36:39.330Z,37.20
2018-08-25T08:39:09.090Z,39.25
2018-08-25T08:41:37.808Z,38.90
2018-08-25T08:44:06.338Z,39.44
2018-08-25T08:46:35.900Z,40.59
2018-08-25T08:49:05.890Z,40.49
2018-08-25T08:51:35.522Z,40.81
2018-08-25T08:54:03.885Z,41.12
2018-08-25T08:56:32.200Z,40.83
2018-08-25T08:59:00.942Z,40.82
2018-08-25T09:01:29.393Z,38.88
2018-08-25T09:03:57.612Z,39.46
2018-08-25T09:06:26.101Z,40.94
2018-08-25T09:08:54.372Z,39.70
2018-08-25T09:11:23.361Z,39.12
2018-08-25T09:13:51.521Z,38.86
2018-08-25T09:16:20.243Z,38.70
2018-08-25T09:18:48.819Z,36.60
2018-08-25T09:21:17.533Z,37.01
2018-08-25T09:23:45.769Z,37.21
2018-08-25T09:26:14.095Z,35.32
2018-08-25T09:28:42.428Z,33.12
2018-08-25T09:31:10.679Z,34.78
2018-08-25T09:33:38.881Z,36.01
2018-08-25T09:36:07.041Z,35.96
2018-08-25T09:38:35.215Z,35.36
2018-08-25T09:41:03.485Z,34.13
2018-08-25T09:43:31.741Z,33.22
2018-08-25T09:46:00.652Z,31.77
2018-08-25T09:48:28.882Z,32.89
2018-08-25T09:50:57.235Z,32.75
2018-08-25T09:53:25.534Z,32.88
2018-08-25T09:55:53.668Z,32.51
2018-08-25T09:58:21.929Z,32.28
2018-08-25T10:00:55.800Z,30.97
2018-08-25T10:03:24.126Z,31.48
2018-08-25T10:05:52.342Z,32.49
2018-08-25T10:08:20.684Z,32.63
2018-08-25T10:10:48.794Z,34.85
2018-08-25T10:13:17.020Z,31.77
2018-08-25T10:15:45.228Z,29.88
2018-08-25T10:18:13.474Z,27.89
2018-08-25T10:20:41.679Z,26.95
2018-08-25T10:23:09.921Z,26.89
2018-08-25T10:25:38.140Z,28.40
2018-08-25T10:28:07.049Z,29.26
2018-08-25T10:30:35.358Z,29.07
2018-08-25T10:33:03.606Z,28.88
2018-08-25T10:35:31.950Z,27.94
2018-08-25T10:38:00.127Z,26.75
2018-08-25T10:40:28.323Z,25.60
2018-08-25T10:42:56.465Z,24.17
2018-08-25T10:45:24.689Z,23.56
2018-08-25T10:47:52.956Z,23.73
2018-08-25T10:50:28.130Z,23.90
2018-08-25T10:52:56.480Z,23.93
2018-08-25T10:55:24.703Z,23.87
2018-08-25T10:57:52.868Z,23.58
2018-08-25T11:00:21.076Z,23.10
2018-08-25T11:02:49.924Z,22.79
2018-08-25T11:05:18.098Z,22.48
2018-08-25T11:07:46.330Z,22.14
2018-08-25T11:10:14.644Z,21.78
2018-08-25T11:12:42.845Z,21.51
2018-08-25T11:15:10.987Z,21.16
2018-08-25T11:17:39.243Z,21.17
2018-08-25T11:20:07.452Z,20.90
2018-08-25T11:22:35.785Z,20.78
2018-08-25T11:25:04.112Z,20.76
2018-08-25T11:27:32.296Z,20.79
2018-08-25T11:30:00.575Z,20.69
2018-08-25T11:32:28.735Z,20.50
2018-08-25T11:34:57.034Z,20.43
2018-08-25T11:37:25.304Z,20.31
2018-08-25T11:39:53.471Z,20.30
2018-08-25T11:42:21.833Z,20.64
2018-08-25T11:44:50.357Z,21.23
2018-08-25T11:47:18.682Z,21.17
2018-08-25T11:49:47.689Z,21.18
2018-08-25T11:52:15.805Z,20.70
2018-08-25T11:54:44.347Z,20.41
2018-08-25T11:57:12.481Z,19.92
2018-08-25T11:59:40.707Z,19.88
2018-08-25T12:02:08.953Z,19.85
2018-08-25T12:04:37.062Z,19.84
2018-08-25T12:07:05.629Z,20.00
2018-08-25T12:09:33.904Z,20.57
2018-08-25T12:12:01.944Z,21.28
2018-08-25T12:14:29.956Z,21.86
2018-08-25T12:16:58.165Z,22.14
2018-08-25T12:19:26.448Z,22.38
2018-08-25T12:21:54.597Z,23.07
2018-08-25T12:24:23.053Z,23.35
2018-08-25T12:26:53.341Z,23.77
2018-08-25T12:29:21.659Z,24.35
2018-08-25T12:31:50.032Z,24.79
2018-08-25T12:34:18.262Z,25.41
2018-08-25T12:36:47.110Z,25.32
2018-08-25T12:39:15.512Z,25.32
2018-08-25T12:41:43.860Z,25.60
2018-08-25T12:44:12.104Z,25.79
2018-08-25T12:46:40.206Z,25.68
2018-08-25T12:49:08.389Z,24.58
2018-08-25T12:51:36.626Z,24.95
2018-08-25T12:54:04.978Z,25.06
2018-08-25T12:56:33.236Z,24.88
2018-08-25T12:59:08.186Z,24.96
2018-08-25T13:01:36.782Z,24.76
2018-08-25T13:04:05.055Z,24.18
2018-08-25T13:06:33.257Z,24.26
2018-08-25T13:09:02.678Z,24.04
2018-08-25T13:11:30.820Z,24.78
2018-08-25T13:13:59.043Z,27.22
2018-08-25T13:16:27.283Z,29.19
2018-08-25T13:18:55.573Z,28.03
2018-08-25T13:21:24.295Z,27.63
2018-08-25T13:23:52.501Z,28.06
2018-08-25T13:26:20.716Z,28.19
2018-08-25T13:28:49.030Z,27.94
2018-08-25T13:31:17.219Z,27.47
2018-08-25T13:33:45.459Z,26.59
2018-08-25T13:36:13.683Z,25.65
2018-08-25T13:38:41.895Z,25.49
2018-08-25T13:41:10.149Z,25.33
2018-08-25T13:43:38.386Z,25.24
2018-08-25T13:46:06.711Z,25.08
2018-08-25T13:48:34.919Z,25.34
2018-08-25T13:51:03.278Z,25.11
2018-08-25T13:53:31.372Z,24.57
2018-08-25T13:55:59.541Z,24.61
2018-08-25T13:58:27.747Z,25.27
2018-08-25T14:00:56.124Z,25.32
2018-08-25T14:03:24.892Z,24.98
2018-08-25T14:05:53.122Z,24.39
2018-08-25T14:08:22.176Z,24.05
2018-08-25T14:10:50.186Z,23.11
2018-08-25T14:13:18.365Z,22.71
2018-08-25T14:15:47.225Z,22.75
2018-08-25T14:18:15.429Z,22.61
2018-08-25T14:20:43.590Z,22.44
2018-08-25T14:23:11.927Z,22.36
2018-08-25T14:25:40.142Z,22.40
2018-08-25T14:28:08.590Z,22.51
2018-08-25T14:30:36.900Z,23.21
2018-08-25T14:33:05.244Z,23.44
2018-08-25T14:35:33.476Z,23.65
2018-08-25T14:38:01.670Z,23.59
2018-08-25T14:40:30.028Z,23.18
2018-08-25T14:42:58.298Z,22.85
2018-08-25T14:45:26.552Z,22.64
2018-08-25T14:47:54.853Z,21.81
2018-08-25T14:50:23.212Z,21.80
2018-08-25T14:52:51.404Z,21.75
2018-08-25T14:55:20.472Z,21.55
2018-08-25T14:57:48.664Z,21.57
2018-08-25T15:00:16.953Z,22.06
2018-08-25T15:02:45.855Z,22.15
2018-08-25T15:05:14.058Z,22.28
2018-08-25T15:07:42.367Z,22.41
2018-08-25T15:10:10.699Z,22.31
2018-08-25T15:12:38.956Z,22.45
2018-08-25T15:15:07.329Z,22.73
2018-08-25T15:17:35.746Z,23.17
2018-08-25T15:20:04.145Z,23.17
2018-08-25T15:22:32.395Z,23.33
2018-08-25T15:25:00.609Z,23.16
2018-08-25T15:27:30.028Z,22.52
2018-08-25T15:29:58.357Z,22.21
2018-08-25T15:32:26.629Z,21.96
2018-08-25T15:34:54.973Z,21.65
2018-08-25T15:37:23.334Z,21.38
2018-08-25T15:39:51.600Z,21.50
2018-08-25T15:42:19.833Z,21.92
2018-08-25T15:44:48.089Z,22.29
2018-08-25T15:47:16.287Z,22.45
2018-08-25T15:49:44.475Z,22.17
2018-08-25T15:52:12.867Z,21.98
2018-08-25T15:54:41.032Z,21.92
2018-08-25T15:57:09.279Z,21.80
2018-08-25T15:59:37.510Z,21.67
2018-08-25T16:02:05.776Z,21.77
2018-08-25T16:04:34.026Z,21.78
2018-08-25T16:07:02.708Z,21.54
2018-08-25T16:09:31.175Z,21.45
2018-08-25T16:11:59.571Z,21.32
2018-08-25T16:14:28.496Z,21.27
2018-08-25T16:16:56.816Z,21.13
2018-08-25T16:19:27.653Z,20.98
2018-08-25T16:21:56.016Z,20.80
2018-08-25T16:24:24.436Z,20.43
2018-08-25T16:26:52.628Z,20.48
2018-08-25T16:29:20.952Z,20.45
2018-08-25T16:31:49.104Z,20.47
2018-08-25T16:34:17.310Z,20.48
2018-08-25T16:36:45.568Z,20.32
2018-08-25T16:39:13.946Z,20.15
2018-08-25T16:41:42.080Z,20.11
2018-08-25T16:44:10.409Z,20.05
2018-08-25T16:46:38.743Z,19.93
2018-08-25T16:49:07.056Z,19.75
2018-08-25T16:51:35.854Z,19.84
2018-08-25T16:54:04.108Z,19.75
2018-08-25T16:56:32.259Z,19.81
2018-08-25T16:59:01.444Z,19.68
2018-08-25T17:01:29.829Z,19.45
2018-08-25T17:03:58.082Z,19.36
2018-08-25T17:06:26.308Z,19.26
2018-08-25T17:08:54.658Z,19.00
2018-08-25T17:11:29.623Z,18.91
2018-08-25T17:13:57.925Z,18.91
2018-08-25T17:16:26.279Z,18.79
2018-08-25T17:18:54.564Z,18.71
2018-08-25T17:21:23.102Z,18.62
2018-08-25T17:23:51.607Z,18.52
2018-08-25T17:26:20.610Z,18.33
2018-08-25T17:28:48.824Z,18.22
2018-08-25T17:31:17.109Z,18.28
2018-08-25T17:33:45.336Z,18.31
2018-08-25T17:36:14.387Z,18.24
2018-08-25T17:38:43.028Z,18.06
2018-08-25T17:41:11.188Z,17.94
2018-08-25T17:43:39.850Z,17.81
2018-08-25T17:46:08.121Z,17.87
2018-08-25T17:48:36.328Z,17.95
2018-08-25T17:51:04.665Z,17.71
2018-08-25T17:53:32.857Z,17.51
2018-08-25T17:56:01.089Z,17.40
2018-08-25T17:58:29.484Z,17.39
2018-08-25T18:00:57.674Z,17.45
2018-08-25T18:03:25.956Z,17.54
2018-08-25T18:05:54.204Z,17.41
2018-08-25T18:08:22.406Z,17.35
2018-08-25T18:10:51.232Z,17.19
2018-08-25T18:13:19.439Z,17.08
2018-08-25T18:15:47.724Z,17.19
2018-08-25T18:18:15.900Z,17.13
2018-08-25T18:20:44.302Z,17.08
2018-08-25T18:23:12.624Z,16.89
2018-08-25T18:25:40.799Z,16.87
2018-08-25T18:28:10.064Z,16.79
2018-08-25T18:30:38.317Z,16.79
2018-08-25T18:33:06.588Z,16.73
2018-08-25T18:35:34.890Z,16.73
2018-08-25T18:38:03.168Z,16.66
2018-08-25T18:40:31.338Z,16.54
2018-08-25T18:42:59.616Z,16.47
2018-08-25T18:45:27.828Z,16.40
2018-08-25T18:47:56.070Z,16.42
2018-08-25T18:50:24.540Z,16.34
2018-08-25T18:52:53.033Z,16.33
2018-08-25T18:55:21.360Z,16.31
2018-08-25T18:57:50.610Z,16.44
2018-08-25T19:00:18.971Z,16.36
2018-08-25T19:02:47.989Z,16.33
2018-08-25T19:05:17.024Z,16.41
2018-08-25T19:07:45.283Z,16.31
2018-08-25T19:10:13.513Z,16.35
2018-08-25T19:12:41.723Z,16.25
2018-08-25T19:15:10.047Z,16.21
2018-08-25T19:17:38.549Z,16.25
2018-08-25T19:20:06.923Z,16.16
2018-08-25T19:22:35.275Z,16.02
2018-08-25T19:25:03.695Z,15.90
2018-08-25T19:27:32.023Z,15.76
2018-08-25T19:30:00.272Z,15.64
2018-08-25T19:32:28.575Z,15.76
2018-08-25T19:34:56.854Z,15.82
2018-08-25T19:37:25.134Z,15.88
2018-08-25T19:39:53.494Z,15.85
2018-08-25T19:42:21.746Z,15.85
2018-08-25T19:44:49.972Z,15.85
2018-08-25T19:47:18.204Z,15.78
2018-08-25T19:49:46.397Z,15.76
2018-08-25T19:52:15.157Z,15.78
2018-08-25T19:54:44.281Z,15.73
2018-08-25T19:57:12.554Z,15.78
2018-08-25T19:59:40.888Z,15.70
2018-08-25T20:02:09.116Z,15.71
2018-08-25T20:04:37.680Z,15.67
2018-08-25T20:07:05.976Z,15.65
2018-08-25T20:09:34.267Z,15.62
2018-08-25T20:12:03.173Z,15.62
2018-08-25T20:14:31.634Z,15.65
2018-08-25T20:17:00.134Z,15.55
2018-08-25T20:19:28.803Z,15.54
2018-08-25T20:21:57.751Z,15.51
2018-08-25T20:24:26.108Z,15.54
2018-08-25T20:26:57.930Z,15.67
2018-08-25T20:29:34.720Z,15.62
2018-08-25T20:32:03.164Z,15.69
2018-08-25T20:34:31.620Z,15.67
2018-08-25T20:37:00.362Z,15.83
2018-08-25T20:39:28.659Z,15.93
2018-08-25T20:41:57.027Z,16.06
2018-08-25T20:44:25.301Z,16.15
2018-08-25T20:46:53.792Z,16.12
2018-08-25T20:49:22.299Z,16.14
2018-08-25T20:51:51.013Z,16.21
2018-08-25T20:54:20.283Z,16.19
2018-08-25T20:56:48.559Z,16.13
2018-08-25T20:59:16.830Z,16.06
2018-08-25T21:01:45.025Z,16.04
2018-08-25T21:04:13.267Z,15.96
2018-08-25T21:06:41.768Z,15.97
2018-08-25T21:09:10.730Z,15.78
2018-08-25T21:11:39.052Z,15.67
2018-08-25T21:14:07.520Z,15.56
2018-08-25T21:16:35.835Z,15.55
2018-08-25T21:19:04.148Z,15.45
2018-08-25T21:21:32.482Z,15.51
2018-08-25T21:24:00.801Z,15.45
2018-08-25T21:26:28.975Z,15.47
2018-08-25T21:28:57.371Z,15.48
2018-08-25T21:31:25.611Z,15.57
2018-08-25T21:33:53.849Z,15.79
2018-08-25T21:36:22.098Z,15.92
2018-08-25T21:38:51.023Z,15.95
2018-08-25T21:41:19.231Z,15.99
2018-08-25T21:43:47.474Z,16.11
2018-08-25T21:46:15.881Z,16.07
2018-08-25T21:48:44.099Z,16.17
2018-08-25T21:51:12.469Z,16.22
2018-08-25T21:53:40.959Z,16.13
2018-08-25T21:56:09.360Z,16.06
2018-08-25T21:58:37.567Z,16.16
2018-08-25T22:01:05.903Z,15.99
2018-08-25T22:03:34.667Z,15.98
2018-08-25T22:06:02.903Z,15.98
2018-08-25T22:08:31.107Z,15.97
2018-08-25T22:10:59.444Z,16.01
2018-08-25T22:13:27.755Z,16.00
2018-08-25T22:15:56.127Z,15.87
2018-08-25T22:18:24.332Z,15.62
2018-08-25T22:20:52.664Z,15.62
2018-08-25T22:23:20.951Z,15.49
2018-08-25T22:25:49.244Z,15.41
2018-08-25T22:28:17.442Z,15.51
2018-08-25T22:30:45.633Z,15.36
2018-08-25T22:33:13.780Z,15.28
2018-08-25T22:35:42.072Z,15.10
2018-08-25T22:38:10.290Z,15.09
2018-08-25T22:40:38.608Z,14.91
2018-08-25T22:43:06.906Z,14.81
2018-08-25T22:45:35.154Z,14.74
2018-08-25T22:48:03.469Z,14.65
2018-08-25T22:50:33.178Z,14.78
2018-08-25T22:53:01.440Z,14.58
2018-08-25T22:55:29.700Z,14.64
2018-08-25T22:57:57.968Z,14.62
2018-08-25T23:00:26.220Z,14.63
2018-08-25T23:02:54.443Z,14.56
2018-08-25T23:05:22.725Z,14.65
2018-08-25T23:07:50.988Z,14.57
2018-08-25T23:10:19.252Z,14.45
2018-08-25T23:12:47.441Z,14.44
2018-08-25T23:15:15.587Z,14.48
2018-08-25T23:17:43.813Z,14.53
2018-08-25T23:20:11.917Z,14.49
2018-08-25T23:22:39.984Z,14.47
2018-08-25T23:25:08.250Z,14.49
2018-08-25T23:27:36.407Z,14.50
2018-08-25T23:30:04.853Z,14.46
2018-08-25T23:32:33.059Z,14.30
2018-08-25T23:35:01.918Z,14.11
2018-08-25T23:37:32.795Z,14.03
2018-08-25T23:40:01.542Z,14.03
2018-08-25T23:45:14.755Z,14.02
2018-08-25T23:47:42.975Z,14.03
2018-08-25T23:50:11.185Z,14.20
2018-08-25T23:52:39.961Z,14.20
2018-08-25T23:55:08.289Z,14.19
2018-08-25T23:57:36.539Z,14.09
